createdAt,value
2023-01-10T00:01:59.097Z,32.80
2023-01-10T00:04:27.309Z,42.70
2023-01-10T00:06:55.164Z,42.10
2023-01-10T00:09:23.112Z,37.50
2023-01-10T00:12:09.676Z,33.00
2023-01-10T00:14:37.684Z,35.50
2023-01-10T00:17:05.493Z,35.80
2023-01-10T00:19:33.251Z,32.40
2023-01-10T00:22:12.502Z,34.60
2023-01-10T00:24:41.630Z,33.30
2023-01-10T00:27:11.083Z,33.50
2023-01-10T00:29:38.962Z,31.70
2023-01-10T00:32:06.918Z,33.60
2023-01-10T00:34:35.536Z,34.40
2023-01-10T00:37:03.725Z,33.60
2023-01-10T00:39:31.518Z,33.10
2023-01-10T00:42:17.865Z,33.40
2023-01-10T00:44:46.935Z,30.50
2023-01-10T00:47:15.328Z,30.50
2023-01-10T00:49:43.212Z,29.60
2023-01-10T00:52:11.045Z,27.90
2023-01-10T00:54:38.946Z,28.70
2023-01-10T00:57:06.768Z,28.70
2023-01-10T00:59:34.675Z,34.80
2023-01-10T01:02:02.623Z,30.30
2023-01-10T01:04:34.511Z,34.50
2023-01-10T01:07:03.492Z,36.40
2023-01-10T01:09:31.392Z,34.60
2023-01-10T01:11:59.281Z,33.40
2023-01-10T01:14:27.525Z,31.70
2023-01-10T01:16:55.479Z,32.40
2023-01-10T01:19:23.294Z,29.20
2023-01-10T01:21:51.165Z,30.60
2023-01-10T01:24:19.192Z,27.90
2023-01-10T01:26:47.035Z,26.90
2023-01-10T01:29:16.731Z,22.50
2023-01-10T01:31:46.103Z,21.90
2023-01-10T01:34:14.804Z,17.90
2023-01-10T01:36:42.791Z,22.30
2023-01-10T01:39:10.661Z,20.50
2023-01-10T01:41:57.347Z,17.90
2023-01-10T01:44:32.143Z,16.70
2023-01-10T01:47:08.137Z,21.20
2023-01-10T01:49:41.173Z,17.90
2023-01-10T01:52:15.910Z,21.60
2023-01-10T01:54:43.881Z,27.70
2023-01-10T01:57:17.588Z,30.80
2023-01-10T01:59:48.674Z,37.00
2023-01-10T02:02:24.662Z,38.10
2023-01-10T02:05:00.674Z,37.50
2023-01-10T02:07:33.980Z,31.30
2023-01-10T02:10:09.416Z,28.80
2023-01-10T02:12:38.630Z,23.10
2023-01-10T02:15:07.117Z,38.10
2023-01-10T02:17:35.115Z,21.60
2023-01-10T02:20:09.068Z,18.80
2023-01-10T02:23:01.617Z,20.30
2023-01-10T02:26:00.502Z,20.30
2023-01-10T02:28:46.405Z,20.10
2023-01-10T02:31:26.628Z,21.10
2023-01-10T02:34:19.517Z,27.20
2023-01-10T02:37:02.425Z,20.40
2023-01-10T02:39:49.135Z,26.20
2023-01-10T02:42:30.318Z,27.80
2023-01-10T02:45:10.149Z,27.30
2023-01-10T02:47:40.244Z,18.60
2023-01-10T02:50:44.869Z,13.80
2023-01-10T02:53:34.572Z,14.00
2023-01-10T02:56:22.578Z,13.50
2023-01-10T02:59:06.614Z,13.00
2023-01-10T03:01:35.462Z,16.60
2023-01-10T03:04:17.726Z,26.10
2023-01-10T03:06:59.452Z,13.00
2023-01-10T03:09:35.413Z,16.90
2023-01-10T03:12:26.471Z,19.70
2023-01-10T03:14:56.838Z,37.90
2023-01-10T03:17:27.363Z,18.70
2023-01-10T03:20:01.078Z,27.10
2023-01-10T03:22:31.324Z,13.00
2023-01-10T03:25:01.709Z,11.50
2023-01-10T03:27:40.244Z,11.70
2023-01-10T03:30:20.839Z,12.00
2023-01-10T03:32:48.805Z,10.70
2023-01-10T03:35:17.313Z,10.00
2023-01-10T03:37:58.395Z,10.20
2023-01-10T03:40:59.357Z,9.80
2023-01-10T03:44:13.165Z,10.10
2023-01-10T03:46:52.656Z,10.60
2023-01-10T03:49:24.617Z,10.00
2023-01-10T03:51:53.996Z,10.30
2023-01-10T03:54:21.876Z,10.90
2023-01-10T03:56:51.587Z,10.70
2023-01-10T03:59:24.321Z,10.80
2023-01-10T04:01:53.004Z,10.40
2023-01-10T04:04:21.532Z,11.20
2023-01-10T04:06:49.342Z,11.30
2023-01-10T04:09:17.342Z,11.70
2023-01-10T04:11:45.538Z,10.80
2023-01-10T04:14:13.304Z,10.00
2023-01-10T04:16:41.196Z,11.30
2023-01-10T04:19:09.031Z,12.00
2023-01-10T04:21:36.902Z,14.20
2023-01-10T04:24:05.056Z,14.50
2023-01-10T04:26:33.007Z,15.10
2023-01-10T04:29:00.890Z,14.30
2023-01-10T04:31:29.333Z,13.50
2023-01-10T04:33:57.269Z,12.10
2023-01-10T04:36:25.308Z,11.70
2023-01-10T04:38:53.332Z,12.50
2023-01-10T04:41:21.204Z,9.50
2023-01-10T04:43:49.827Z,10.10
2023-01-10T04:46:17.787Z,15.10
2023-01-10T04:48:45.694Z,12.00
2023-01-10T04:51:13.645Z,11.00
2023-01-10T04:53:41.611Z,10.10
2023-01-10T04:56:15.140Z,8.90
2023-01-10T04:58:42.988Z,9.90
2023-01-10T05:01:13.483Z,9.70
2023-01-10T05:03:41.572Z,9.40
2023-01-10T05:06:10.217Z,9.90
2023-01-10T05:08:38.112Z,9.70
2023-01-10T05:11:05.894Z,9.90
2023-01-10T05:13:34.126Z,8.80
2023-01-10T05:16:01.905Z,8.30
2023-01-10T05:18:30.606Z,8.50
2023-01-10T05:21:04.004Z,7.70
2023-01-10T05:23:32.075Z,7.70
2023-01-10T05:26:12.835Z,8.20
2023-01-10T05:28:41.731Z,9.10
2023-01-10T05:31:12.563Z,8.40
2023-01-10T05:33:44.671Z,8.40
2023-01-10T05:36:12.539Z,8.00
2023-01-10T05:38:40.547Z,8.90
2023-01-10T05:41:08.773Z,7.80
2023-01-10T05:43:36.756Z,8.50
2023-01-10T05:46:04.896Z,8.60
2023-01-10T05:48:32.833Z,9.70
2023-01-10T05:51:00.847Z,10.50
2023-01-10T05:53:28.728Z,9.90
2023-01-10T05:55:59.456Z,9.50
2023-01-10T05:58:28.359Z,7.20
2023-01-10T06:00:57.246Z,7.40
2023-01-10T06:03:26.824Z,8.70
2023-01-10T06:05:55.659Z,8.60
2023-01-10T06:08:24.755Z,7.20
2023-01-10T06:10:52.722Z,7.70
2023-01-10T06:13:20.648Z,8.20
2023-01-10T06:15:49.148Z,8.40
2023-01-10T06:18:17.107Z,7.90
2023-01-10T06:20:45.315Z,7.90
2023-01-10T06:23:13.380Z,6.80
2023-01-10T06:25:41.857Z,7.30
2023-01-10T06:28:11.776Z,6.90
2023-01-10T06:30:42.203Z,8.80
2023-01-10T06:33:11.224Z,8.40
2023-01-10T06:35:40.570Z,8.90
2023-01-10T06:38:09.005Z,7.90
2023-01-10T06:40:36.922Z,7.20
2023-01-10T06:43:04.775Z,7.80
2023-01-10T06:45:33.383Z,8.30
2023-01-10T06:48:01.241Z,8.70
2023-01-10T06:50:29.407Z,15.20
2023-01-10T06:52:59.047Z,12.80
2023-01-10T06:55:27.675Z,9.60
2023-01-10T06:58:00.578Z,9.60
2023-01-10T07:00:30.418Z,8.90
2023-01-10T07:02:59.752Z,9.70
2023-01-10T07:05:29.732Z,9.50
2023-01-10T07:07:59.018Z,10.70
2023-01-10T07:10:27.940Z,10.50
2023-01-10T07:12:56.887Z,9.90
2023-01-10T07:15:27.167Z,9.30
2023-01-10T07:17:58.604Z,8.80
2023-01-10T07:20:27.413Z,9.10
2023-01-10T07:22:58.426Z,9.80
2023-01-10T07:25:28.624Z,9.10
2023-01-10T07:27:56.805Z,9.80
2023-01-10T07:30:26.147Z,10.20
2023-01-10T07:32:57.962Z,9.50
2023-01-10T07:35:26.215Z,10.20
2023-01-10T07:37:54.143Z,10.10
2023-01-10T07:40:21.971Z,10.10
2023-01-10T07:42:50.208Z,9.90
2023-01-10T07:45:18.165Z,9.60
2023-01-10T07:47:46.997Z,9.50
2023-01-10T07:50:17.860Z,9.90
2023-01-10T07:52:46.186Z,9.70
2023-01-10T07:55:14.192Z,9.40
2023-01-10T07:57:42.187Z,12.50
2023-01-10T08:00:11.121Z,52.10
2023-01-10T08:02:39.073Z,164.80
2023-01-10T08:05:07.415Z,53.50
2023-01-10T08:07:35.553Z,124.60
2023-01-10T08:10:05.202Z,196.00
2023-01-10T08:12:33.467Z,178.20
2023-01-10T08:15:01.324Z,178.80
2023-01-10T08:17:29.263Z,87.50
2023-01-10T08:19:57.145Z,87.80
2023-01-10T08:22:24.896Z,210.60
2023-01-10T08:24:53.180Z,186.90
2023-01-10T08:27:21.148Z,122.80
2023-01-10T08:29:48.993Z,252.40
2023-01-10T08:32:16.847Z,146.50
2023-01-10T08:34:44.794Z,138.50
2023-01-10T08:37:14.113Z,351.30
2023-01-10T08:39:42.012Z,96.50
2023-01-10T08:42:10.359Z,302.00
2023-01-10T08:44:38.288Z,463.50
2023-01-10T08:47:06.097Z,400.40
2023-01-10T08:49:34.102Z,263.30
2023-01-10T08:52:02.790Z,315.60
2023-01-10T08:54:31.028Z,296.80
2023-01-10T08:56:59.499Z,309.40
2023-01-10T08:59:27.354Z,204.80
2023-01-10T09:01:58.518Z,107.30
2023-01-10T09:04:29.319Z,126.80
2023-01-10T09:06:58.367Z,159.30
2023-01-10T09:09:26.261Z,243.30
2023-01-10T09:11:54.129Z,266.40
2023-01-10T09:14:22.009Z,291.60
2023-01-10T09:16:51.864Z,155.40
2023-01-10T09:19:19.681Z,81.00
2023-01-10T09:21:47.860Z,98.80
2023-01-10T09:24:16.197Z,57.20
2023-01-10T09:26:44.950Z,77.70
2023-01-10T09:29:12.754Z,60.50
2023-01-10T09:31:40.645Z,156.50
2023-01-10T09:34:08.746Z,73.80
2023-01-10T09:36:36.560Z,90.90
2023-01-10T09:39:04.570Z,36.10
2023-01-10T09:42:11.573Z,31.30
2023-01-10T09:44:42.303Z,24.70
2023-01-10T09:47:29.504Z,29.60
2023-01-10T09:50:06.552Z,28.10
2023-01-10T09:52:39.946Z,43.80
2023-01-10T09:55:31.488Z,65.60
2023-01-10T09:58:13.342Z,43.10
2023-01-10T10:00:47.947Z,30.60
2023-01-10T10:03:30.273Z,22.00
2023-01-10T10:06:11.199Z,26.70
2023-01-10T10:08:42.116Z,117.60
2023-01-10T10:11:11.067Z,179.20
2023-01-10T10:14:11.721Z,47.00
2023-01-10T10:17:13.661Z,66.50
2023-01-10T10:20:20.639Z,220.80
2023-01-10T10:23:17.623Z,198.40
2023-01-10T10:26:02.739Z,71.60
2023-01-10T10:28:53.463Z,32.90
2023-01-10T10:31:44.974Z,37.70
2023-01-10T10:34:38.793Z,39.30
2023-01-10T10:37:17.738Z,27.50
2023-01-10T10:39:57.029Z,26.40
2023-01-10T10:42:30.524Z,38.10
2023-01-10T10:45:15.261Z,23.40
2023-01-10T10:47:50.156Z,20.00
2023-01-10T10:50:31.602Z,30.90
2023-01-10T10:53:04.231Z,22.20
2023-01-10T10:55:35.753Z,35.80
2023-01-10T10:58:05.870Z,34.00
2023-01-10T11:00:34.648Z,25.20
2023-01-10T11:03:13.199Z,17.70
2023-01-10T11:05:44.832Z,14.60
2023-01-10T11:08:16.232Z,57.20
2023-01-10T11:10:52.440Z,44.00
2023-01-10T11:13:32.369Z,50.50
2023-01-10T11:16:02.196Z,23.50
2023-01-10T11:18:31.973Z,25.70
2023-01-10T11:21:14.078Z,27.50
2023-01-10T11:23:49.230Z,40.20
2023-01-10T11:26:37.372Z,69.50
2023-01-10T11:29:33.497Z,71.50
2023-01-10T11:32:10.086Z,83.10
2023-01-10T11:34:38.862Z,35.20
2023-01-10T11:37:32.444Z,18.00
2023-01-10T11:40:24.315Z,19.40
2023-01-10T11:42:59.237Z,23.20
2023-01-10T11:45:31.929Z,17.60
2023-01-10T11:48:21.389Z,16.80
2023-01-10T11:50:55.913Z,25.20
2023-01-10T11:53:42.549Z,26.70
2023-01-10T11:56:14.472Z,46.00
2023-01-10T11:58:44.057Z,76.60
2023-01-10T12:01:39.964Z,73.20
2023-01-10T12:04:18.001Z,114.50
2023-01-10T12:06:49.862Z,36.80
2023-01-10T12:09:36.561Z,41.20
2023-01-10T12:12:25.544Z,47.60
2023-01-10T12:14:56.092Z,25.50
2023-01-10T12:17:23.883Z,33.40
2023-01-10T12:19:53.713Z,32.60
2023-01-10T12:22:29.717Z,20.80
2023-01-10T12:24:59.874Z,18.00
2023-01-10T12:27:28.988Z,21.70
2023-01-10T12:30:35.112Z,45.10
2023-01-10T12:33:17.299Z,15.70
2023-01-10T12:36:23.797Z,38.20
2023-01-10T12:39:27.027Z,15.70
2023-01-10T12:42:36.304Z,13.70
2023-01-10T12:45:08.661Z,13.80
2023-01-10T12:48:07.971Z,12.20
2023-01-10T12:50:46.257Z,12.60
2023-01-10T12:53:23.705Z,11.70
2023-01-10T12:55:55.587Z,13.70
2023-01-10T12:58:35.957Z,24.20
2023-01-10T13:01:05.951Z,15.80
2023-01-10T13:03:35.675Z,15.10
2023-01-10T13:06:04.239Z,19.70
2023-01-10T13:08:37.994Z,13.10
2023-01-10T13:11:07.994Z,13.00
2023-01-10T13:13:41.100Z,22.20
2023-01-10T13:16:24.155Z,21.70
2023-01-10T13:19:23.106Z,15.70
2023-01-10T13:21:52.515Z,15.40
2023-01-10T13:24:29.086Z,21.90
2023-01-10T13:27:00.448Z,18.30
2023-01-10T13:29:39.230Z,16.70
2023-01-10T13:32:27.068Z,17.60
2023-01-10T13:35:08.600Z,17.10
2023-01-10T13:37:40.106Z,17.10
2023-01-10T13:40:08.466Z,24.40
2023-01-10T13:42:56.422Z,25.10
2023-01-10T13:45:27.713Z,64.40
2023-01-10T13:47:55.772Z,406.10
2023-01-10T13:50:28.599Z,113.90
2023-01-10T13:53:02.510Z,271.60
2023-01-10T13:55:35.973Z,32.50
2023-01-10T13:58:09.784Z,44.30
2023-01-10T14:00:56.507Z,302.00
2023-01-10T14:03:50.393Z,241.40
2023-01-10T14:06:20.524Z,80.60
2023-01-10T14:08:52.263Z,124.60
2023-01-10T14:11:23.608Z,111.10
2023-01-10T14:13:56.147Z,165.60
2023-01-10T14:16:34.746Z,203.40
2023-01-10T14:19:07.043Z,160.00
2023-01-10T14:21:45.382Z,174.90
2023-01-10T14:24:26.089Z,230.40
2023-01-10T14:26:58.728Z,52.90
2023-01-10T14:29:31.859Z,55.00
2023-01-10T14:32:01.437Z,98.50
2023-01-10T14:34:35.741Z,108.10
2023-01-10T14:37:09.619Z,284.80
2023-01-10T14:39:38.155Z,130.70
2023-01-10T14:42:14.051Z,232.60
2023-01-10T14:47:32.867Z,265.60
2023-01-10T14:50:02.004Z,114.90
2023-01-10T14:52:30.919Z,216.40
2023-01-10T14:55:13.993Z,159.20
2023-01-10T14:57:53.719Z,161.90
2023-01-10T15:00:30.304Z,211.30
2023-01-10T15:03:03.140Z,131.60
2023-01-10T15:05:36.579Z,107.90
2023-01-10T15:08:27.133Z,251.10
2023-01-10T15:11:00.928Z,295.10
2023-01-10T15:13:31.489Z,134.20
2023-01-10T15:16:00.266Z,159.60
2023-01-10T15:18:36.236Z,80.10
2023-01-10T15:21:05.299Z,72.00
2023-01-10T15:23:39.145Z,113.40
2023-01-10T15:26:20.702Z,82.80
2023-01-10T15:29:10.972Z,155.60
2023-01-10T15:31:40.308Z,69.40
2023-01-10T15:34:11.261Z,66.30
2023-01-10T15:36:52.989Z,63.90
2023-01-10T15:39:27.176Z,95.20
2023-01-10T15:42:02.022Z,67.00
2023-01-10T15:44:41.145Z,92.10
2023-01-10T15:47:40.559Z,194.00
2023-01-10T15:50:32.090Z,181.70
2023-01-10T15:53:03.679Z,113.80
2023-01-10T15:55:39.657Z,103.30
2023-01-10T16:00:51.747Z,160.70
2023-01-10T16:03:23.166Z,120.60
2023-01-10T16:05:58.849Z,106.20
2023-01-10T16:08:30.970Z,90.60
2023-01-10T16:11:01.380Z,142.60
2023-01-10T16:13:31.831Z,51.90
2023-01-10T16:16:02.291Z,45.00
2023-01-10T16:18:30.725Z,46.30
2023-01-10T16:21:03.195Z,75.60
2023-01-10T16:23:36.007Z,118.60
2023-01-10T16:26:06.686Z,67.40
2023-01-10T16:28:38.094Z,31.80
2023-01-10T16:31:10.468Z,30.60
2023-01-10T16:33:38.803Z,52.50
2023-01-10T16:36:17.701Z,65.90
2023-01-10T16:38:45.600Z,167.50
2023-01-10T16:41:33.788Z,82.50
2023-01-10T16:44:01.913Z,73.40
2023-01-10T16:46:30.336Z,74.80
2023-01-10T16:48:58.209Z,83.60
2023-01-10T16:51:30.365Z,72.60
2023-01-10T16:53:58.565Z,52.20
2023-01-10T16:56:29.005Z,60.90
2023-01-10T16:58:57.682Z,89.50
2023-01-10T17:01:54.589Z,86.10
2023-01-10T17:04:28.146Z,87.00
2023-01-10T17:06:56.942Z,88.00
2023-01-10T17:09:27.293Z,87.40
2023-01-10T17:12:10.759Z,71.40
2023-01-10T17:14:39.055Z,49.30
2023-01-10T17:17:06.896Z,76.00
2023-01-10T17:19:35.202Z,56.80
2023-01-10T17:22:03.064Z,51.00
2023-01-10T17:24:30.971Z,74.90
2023-01-10T17:26:58.914Z,61.30
2023-01-10T17:29:26.847Z,116.00
2023-01-10T17:31:54.783Z,56.80
2023-01-10T17:34:22.602Z,71.30
2023-01-10T17:36:50.598Z,63.50
2023-01-10T17:39:18.519Z,63.30
2023-01-10T17:41:46.404Z,101.70
2023-01-10T17:44:14.319Z,64.80
2023-01-10T17:46:42.229Z,47.60
2023-01-10T17:49:11.888Z,82.20
2023-01-10T17:51:41.310Z,151.20
2023-01-10T17:54:09.215Z,99.90
2023-01-10T17:56:37.044Z,241.40
2023-01-10T17:59:04.919Z,500.50
2023-01-10T18:01:32.931Z,315.90
2023-01-10T18:04:00.911Z,229.60
2023-01-10T18:06:28.798Z,149.70
2023-01-10T18:08:56.862Z,157.90
2023-01-10T18:11:25.411Z,118.00
2023-01-10T18:13:54.790Z,216.80
2023-01-10T18:16:23.627Z,258.40
2023-01-10T18:18:53.034Z,165.90
2023-01-10T18:21:20.977Z,100.90
2023-01-10T18:23:49.936Z,74.20
2023-01-10T18:26:18.024Z,85.30
2023-01-10T18:28:45.927Z,132.80
2023-01-10T18:31:16.700Z,161.10
2023-01-10T18:33:45.914Z,119.60
2023-01-10T18:36:20.705Z,165.10
2023-01-10T18:38:49.383Z,95.30
2023-01-10T18:41:18.759Z,74.30
2023-01-10T18:43:47.236Z,87.60
2023-01-10T18:46:21.222Z,285.50
2023-01-10T18:48:52.577Z,137.30
2023-01-10T18:51:22.704Z,251.10
2023-01-10T18:53:53.021Z,132.50
2023-01-10T18:56:21.119Z,74.80
2023-01-10T18:58:49.130Z,68.90
2023-01-10T19:01:19.585Z,74.20
2023-01-10T19:03:48.205Z,71.20
2023-01-10T19:06:17.594Z,91.60
2023-01-10T19:08:47.011Z,101.00
2023-01-10T19:11:16.778Z,108.40
2023-01-10T19:13:47.130Z,135.60
2023-01-10T19:16:24.139Z,87.00
2023-01-10T19:18:58.148Z,109.50
2023-01-10T19:21:27.721Z,168.10
2023-01-10T19:23:56.746Z,196.50
2023-01-10T19:26:25.597Z,178.00
2023-01-10T19:28:53.878Z,166.30
2023-01-10T19:31:27.581Z,142.70
2023-01-10T19:33:59.346Z,137.70
2023-01-10T19:36:28.447Z,223.70
2023-01-10T19:38:58.350Z,521.50
2023-01-10T19:41:27.790Z,129.80
2023-01-10T19:44:01.334Z,145.90
2023-01-10T19:46:32.337Z,82.60
2023-01-10T19:49:07.812Z,96.80
2023-01-10T19:51:38.063Z,101.20
2023-01-10T19:54:08.085Z,77.10
2023-01-10T19:56:36.434Z,130.80
2023-01-10T19:59:04.508Z,135.40
2023-01-10T20:01:32.467Z,57.70
2023-01-10T20:04:04.059Z,167.30
2023-01-10T20:06:35.206Z,131.50
2023-01-10T20:09:03.860Z,125.60
2023-01-10T20:11:37.895Z,46.40
2023-01-10T20:14:12.119Z,27.60
2023-01-10T20:16:41.699Z,27.30
2023-01-10T20:19:11.648Z,33.10
2023-01-10T20:21:41.394Z,36.60
2023-01-10T20:24:14.441Z,46.60
2023-01-10T20:26:43.664Z,48.30
2023-01-10T20:29:12.403Z,48.70
2023-01-10T20:31:40.353Z,42.70
2023-01-10T20:34:08.959Z,43.10
2023-01-10T20:36:36.853Z,44.80
2023-01-10T20:39:04.810Z,44.20
2023-01-10T20:41:32.869Z,37.70
2023-01-10T20:44:00.844Z,46.50
2023-01-10T20:46:31.888Z,59.40
2023-01-10T20:49:02.370Z,68.20
2023-01-10T20:51:33.852Z,71.80
2023-01-10T20:54:02.311Z,56.90
2023-01-10T20:56:31.950Z,50.20
2023-01-10T20:58:59.869Z,56.20
2023-01-10T21:01:34.622Z,74.40
2023-01-10T21:06:34.142Z,81.60
2023-01-10T21:09:02.225Z,66.50
2023-01-10T21:11:30.217Z,51.80
2023-01-10T21:13:58.132Z,43.00
2023-01-10T21:16:26.051Z,44.40
2023-01-10T21:18:54.119Z,39.50
2023-01-10T21:21:24.867Z,45.00
2023-01-10T21:23:55.845Z,44.50
2023-01-10T21:26:23.736Z,42.60
2023-01-10T21:28:51.533Z,40.60
2023-01-10T21:31:21.662Z,43.50
2023-01-10T21:33:50.087Z,40.40
2023-01-10T21:36:18.152Z,37.60
2023-01-10T21:38:46.629Z,44.10
2023-01-10T21:41:38.380Z,48.80
2023-01-10T21:44:07.495Z,49.40
2023-01-10T21:46:35.974Z,65.40
2023-01-10T21:49:05.107Z,63.10
2023-01-10T21:51:32.973Z,56.70
2023-01-10T21:54:00.950Z,97.20
2023-01-10T21:56:28.809Z,102.10
2023-01-10T21:58:56.622Z,121.40
2023-01-10T22:01:24.456Z,165.00
2023-01-10T22:03:52.552Z,164.70
2023-01-10T22:06:20.468Z,107.90
2023-01-10T22:08:49.524Z,64.00
2023-01-10T22:11:17.389Z,44.70
2023-01-10T22:13:45.216Z,39.20
2023-01-10T22:16:13.877Z,40.40
2023-01-10T22:18:42.788Z,41.30
2023-01-10T22:21:12.640Z,56.70
2023-01-10T22:23:43.118Z,82.00
2023-01-10T22:26:14.112Z,59.00
2023-01-10T22:28:42.424Z,216.10
2023-01-10T22:31:10.316Z,152.60
2023-01-10T22:33:38.620Z,118.50
2023-01-10T22:36:13.362Z,301.10
2023-01-10T22:38:41.819Z,244.50
2023-01-10T22:41:12.645Z,203.50
2023-01-10T22:43:40.999Z,110.10
2023-01-10T22:46:09.637Z,92.40
2023-01-10T22:48:38.323Z,74.50
2023-01-10T22:51:06.452Z,56.50
2023-01-10T22:53:35.256Z,71.70
2023-01-10T22:56:05.793Z,89.60
2023-01-10T22:58:33.787Z,68.60
2023-01-10T23:01:06.494Z,65.10
2023-01-10T23:03:34.853Z,60.90
2023-01-10T23:06:02.724Z,56.30
2023-01-10T23:08:31.816Z,48.70
2023-01-10T23:11:00.551Z,41.90
2023-01-10T23:13:30.206Z,33.60
2023-01-10T23:16:06.311Z,30.00
2023-01-10T23:21:02.487Z,26.90
2023-01-10T23:23:31.042Z,27.40
2023-01-10T23:26:03.959Z,26.50
2023-01-10T23:28:32.771Z,26.70
2023-01-10T23:31:00.866Z,25.10
2023-01-10T23:33:28.924Z,25.70
2023-01-10T23:35:57.001Z,26.10
2023-01-10T23:38:25.181Z,23.80
2023-01-10T23:40:53.034Z,23.90
2023-01-10T23:43:21.766Z,24.10
2023-01-10T23:45:49.945Z,24.90
2023-01-10T23:48:18.835Z,21.90
2023-01-10T23:50:48.819Z,21.90
2023-01-10T23:53:18.000Z,25.20
2023-01-10T23:55:45.917Z,21.50
2023-01-10T23:58:15.383Z,24.00
